Terminal Aerodrome Forecast
Issued by NWS

Home | Current Version | Previous Version | Text Only | Print | Product List | Glossary On
Versions: 1 2 3 4 5 6 7 8 9 10 11 12 13 14 15 16 17 18 19 20
475
FTUS43 KDLH 300533
TAFHYR
TAF
KHYR 300533Z 3006/0106 04006KT P6SM SKC
     FM301400 06008G18KT P6SM SKC
     FM302000 08012G22KT P6SM FEW040
     FM010300 06010KT P6SM SKC=

USA.gov is the U.S. government's official web portal to all federal, state and local government web resources and services.